createdAt,value
2022-09-21T00:00:47.559Z,102102.03
2022-09-21T00:01:49.302Z,102099.50
2022-09-21T00:02:51.622Z,102094.09
2022-09-21T00:03:58.564Z,102090.31
2022-09-21T00:05:00.217Z,102105.72
2022-09-21T00:06:06.669Z,102104.03
2022-09-21T00:07:08.372Z,102097.78
2022-09-21T00:08:13.204Z,102105.03
2022-09-21T00:09:15.170Z,102101.50
2022-09-21T00:10:17.006Z,102100.63
2022-09-21T00:11:22.960Z,102100.81
2022-09-21T00:12:24.584Z,102110.59
2022-09-21T00:13:28.399Z,102093.44
2022-09-21T00:14:31.327Z,102103.50
2022-09-21T00:15:33.134Z,102108.91
2022-09-21T00:16:35.457Z,102112.59
2022-09-21T00:17:37.814Z,102112.59
2022-09-21T00:18:39.546Z,102109.91
2022-09-21T00:19:41.992Z,102111.19
2022-09-21T00:20:43.713Z,102112.91
2022-09-21T00:21:45.491Z,102115.59
2022-09-21T00:22:48.314Z,102124.69
2022-09-21T00:23:50.457Z,102106.66
2022-09-21T00:24:52.121Z,102111.78
2022-09-21T00:26:14.033Z,102119.31
2022-09-21T00:27:15.762Z,102117.00
2022-09-21T00:28:17.474Z,102125.53
2022-09-21T00:29:19.205Z,102117.16
2022-09-21T00:30:20.897Z,102123.13
2022-09-21T00:31:23.173Z,102119.56
2022-09-21T00:32:27.690Z,102123.44
2022-09-21T00:33:29.357Z,102119.16
2022-09-21T00:34:32.242Z,102114.06
2022-09-21T00:35:34.766Z,102120.16
2022-09-21T00:36:36.547Z,102128.66
2022-09-21T00:37:38.306Z,102123.44
2022-09-21T00:38:40.314Z,102116.34
2022-09-21T00:39:42.012Z,102102.19
2022-09-21T00:40:43.874Z,102125.44
2022-09-21T00:41:46.099Z,102129.97
2022-09-21T00:42:48.140Z,102119.47
2022-09-21T00:44:15.911Z,102126.66
2022-09-21T00:45:23.910Z,102119.16
2022-09-21T00:46:29.977Z,102127.84
2022-09-21T00:47:36.866Z,102123.44
2022-09-21T00:48:39.105Z,102121.16
2022-09-21T00:49:43.408Z,102122.03
2022-09-21T00:50:50.665Z,102110.28
2022-09-21T00:51:53.372Z,102104.88
2022-09-21T00:52:58.570Z,102121.34
2022-09-21T00:54:09.941Z,102122.03
2022-09-21T00:55:26.261Z,102121.72
2022-09-21T00:56:28.823Z,102098.66
2022-09-21T00:57:32.013Z,102122.63
2022-09-21T00:58:41.061Z,102123.16
2022-09-21T00:59:45.097Z,102124.88
2022-09-21T01:00:47.016Z,102127.72
2022-09-21T01:01:49.213Z,102127.03
2022-09-21T01:02:51.475Z,102123.47
2022-09-21T01:03:53.833Z,102129.88
2022-09-21T01:04:56.633Z,102129.88
2022-09-21T01:05:58.422Z,102129.88
2022-09-21T01:07:05.684Z,102110.31
2022-09-21T01:08:10.170Z,102122.75
2022-09-21T01:09:11.890Z,102124.47
2022-09-21T01:10:19.416Z,102126.47
2022-09-21T01:11:43.895Z,102121.63
2022-09-21T01:13:26.796Z,102127.28
2022-09-21T01:14:47.373Z,102121.03
2022-09-21T01:16:04.506Z,102129.97
2022-09-21T01:17:22.061Z,102132.66
2022-09-21T01:18:37.580Z,102134.84
2022-09-21T01:20:03.329Z,102137.66
2022-09-21T01:21:14.212Z,102134.84
2022-09-21T01:23:00.524Z,102135.38
2022-09-21T01:24:16.429Z,102136.38
2022-09-21T01:25:32.272Z,102135.66
2022-09-21T01:27:00.479Z,102140.06
2022-09-21T01:28:21.556Z,102152.56
2022-09-21T01:29:32.151Z,102141.38
2022-09-21T01:30:37.951Z,102149.34
2022-09-21T01:32:05.364Z,102130.91
2022-09-21T01:33:15.943Z,102146.34
2022-09-21T01:34:33.575Z,102130.34
2022-09-21T01:35:40.666Z,102143.97
2022-09-21T01:36:44.848Z,102136.84
2022-09-21T01:38:00.437Z,102136.00
2022-09-21T01:39:14.460Z,102140.56
2022-09-21T01:40:58.436Z,102148.06
2022-09-21T01:42:01.606Z,102150.63
2022-09-21T01:43:07.123Z,102147.66
2022-09-21T01:44:20.014Z,102151.34
2022-09-21T01:45:35.233Z,102146.09
2022-09-21T01:46:38.095Z,102141.69
2022-09-21T01:47:42.523Z,102139.16
2022-09-21T01:48:49.493Z,102125.94
2022-09-21T01:49:55.892Z,102147.50
2022-09-21T01:50:59.729Z,102150.22
2022-09-21T01:52:11.396Z,102133.03
2022-09-21T01:53:32.005Z,102141.84
2022-09-21T01:54:41.232Z,102139.97
2022-09-21T01:55:51.801Z,102137.44
2022-09-21T01:57:01.717Z,102129.22
2022-09-21T01:58:18.133Z,102137.44
2022-09-21T01:59:32.814Z,102137.44
2022-09-21T02:00:36.570Z,102148.25
2022-09-21T02:01:44.879Z,102142.13
2022-09-21T02:03:12.864Z,102142.97
2022-09-21T02:04:15.236Z,102151.66
2022-09-21T02:05:20.218Z,102140.53
2022-09-21T02:06:22.004Z,102150.50
2022-09-21T02:07:25.150Z,102148.81
2022-09-21T02:08:32.200Z,102137.16
2022-09-21T02:09:37.317Z,102151.78
2022-09-21T02:10:52.763Z,102150.50
2022-09-21T02:11:54.510Z,102147.69
2022-09-21T02:13:01.404Z,102158.19
2022-09-21T02:14:03.321Z,102160.88
2022-09-21T02:15:05.457Z,102149.13
2022-09-21T02:16:07.203Z,102166.41
2022-09-21T02:17:42.091Z,102165.28
2022-09-21T02:18:50.321Z,102166.69
2022-09-21T02:20:27.460Z,102164.28
2022-09-21T02:21:50.557Z,102163.56
2022-09-21T02:23:06.853Z,102169.97
2022-09-21T02:24:21.008Z,102169.22
2022-09-21T02:25:40.196Z,102172.09
2022-09-21T02:27:07.418Z,102165.00
2022-09-21T02:28:23.596Z,102165.81
2022-09-21T02:29:33.630Z,102174.09
2022-09-21T02:30:37.520Z,102174.38
2022-09-21T02:31:49.530Z,102162.72
2022-09-21T02:33:13.366Z,102164.72
2022-09-21T02:34:43.191Z,102161.59
2022-09-21T02:36:28.474Z,102164.44
2022-09-21T02:37:44.222Z,102149.81
2022-09-21T02:38:54.787Z,102145.13
2022-09-21T02:40:04.415Z,102163.59
2022-09-21T02:41:17.109Z,102160.59
2022-09-21T02:42:26.896Z,102159.03
2022-09-21T02:43:37.639Z,102157.50
2022-09-21T02:44:52.883Z,102165.00
2022-09-21T02:45:59.726Z,102161.44
2022-09-21T02:47:09.610Z,102166.13
2022-09-21T02:48:19.182Z,102167.84
2022-09-21T02:49:32.749Z,102162.59
2022-09-21T02:50:47.913Z,102172.22
2022-09-21T02:51:52.405Z,102167.84
2022-09-21T02:52:54.901Z,102166.28
2022-09-21T02:53:58.731Z,102148.72
2022-09-21T02:55:01.995Z,102167.72
2022-09-21T02:56:07.431Z,102172.13
2022-09-21T02:57:12.046Z,102157.09
2022-09-21T02:58:16.606Z,102173.09
2022-09-21T02:59:18.853Z,102169.56
2022-09-21T03:00:20.774Z,102175.81
2022-09-21T03:01:24.299Z,102173.28
2022-09-21T03:02:37.013Z,102164.78
2022-09-21T03:03:39.058Z,102178.22
2022-09-21T03:04:43.645Z,102187.47
2022-09-21T03:05:48.700Z,102176.81
2022-09-21T03:06:50.402Z,102186.59
2022-09-21T03:07:52.131Z,102174.69
2022-09-21T03:08:53.914Z,102173.28
2022-09-21T03:09:55.626Z,102177.81
2022-09-21T03:10:57.893Z,102186.88
2022-09-21T03:11:59.658Z,102188.59
2022-09-21T03:13:01.722Z,102192.44
2022-09-21T03:14:08.682Z,102188.88
2022-09-21T03:15:10.638Z,102195.84
2022-09-21T03:16:13.111Z,102185.19
2022-09-21T03:17:14.880Z,102194.97
2022-09-21T03:18:16.718Z,102194.28
2022-09-21T03:19:18.423Z,102179.25
2022-09-21T03:20:20.105Z,102204.22
2022-09-21T03:21:22.238Z,102198.84
2022-09-21T03:22:24.436Z,102188.75
2022-09-21T03:23:26.550Z,102201.53
2022-09-21T03:24:46.601Z,102201.53
2022-09-21T03:25:48.645Z,102202.94
2022-09-21T03:26:50.306Z,102197.69
2022-09-21T03:27:55.001Z,102188.47
2022-09-21T03:28:56.884Z,102190.75
2022-09-21T03:30:01.983Z,102201.66
2022-09-21T03:31:04.269Z,102206.06
2022-09-21T03:32:06.258Z,102197.69
2022-09-21T03:33:08.365Z,102197.56
2022-09-21T03:34:11.512Z,102205.34
2022-09-21T03:35:13.265Z,102201.94
2022-09-21T03:36:14.973Z,102205.34
2022-09-21T03:37:17.054Z,102209.03
2022-09-21T03:38:21.237Z,102202.25
2022-09-21T03:39:23.001Z,102201.94
2022-09-21T03:40:27.020Z,102200.53
2022-09-21T03:41:28.793Z,102193.44
2022-09-21T03:42:30.468Z,102204.53
2022-09-21T03:43:33.116Z,102201.94
2022-09-21T03:44:34.947Z,102200.25
2022-09-21T03:45:38.063Z,102201.94
2022-09-21T03:46:39.866Z,102182.06
2022-09-21T03:47:42.332Z,102196.69
2022-09-21T03:48:47.557Z,102194.97
2022-09-21T03:49:49.239Z,102201.13
2022-09-21T03:50:51.518Z,102188.59
2022-09-21T03:51:53.330Z,102186.94
2022-09-21T03:52:58.357Z,102185.78
2022-09-21T03:54:00.064Z,102181.38
2022-09-21T03:55:05.149Z,102199.53
2022-09-21T03:56:06.819Z,102193.44
2022-09-21T03:57:09.022Z,102196.84
2022-09-21T03:58:10.842Z,102194.28
2022-09-21T03:59:14.263Z,102200.53
2022-09-21T04:00:16.771Z,102193.44
2022-09-21T04:01:18.511Z,102197.84
2022-09-21T04:02:20.491Z,102188.06
2022-09-21T04:03:22.331Z,102202.53
2022-09-21T04:04:24.186Z,102174.16
2022-09-21T04:05:26.296Z,102196.25
2022-09-21T04:06:28.023Z,102194.44
2022-09-21T04:07:37.070Z,102191.88
2022-09-21T04:08:39.803Z,102203.38
2022-09-21T04:09:42.002Z,102197.13
2022-09-21T04:10:44.158Z,102198.97
2022-09-21T04:11:46.663Z,102196.25
2022-09-21T04:12:48.779Z,102198.25
2022-09-21T04:13:58.226Z,102199.13
2022-09-21T04:15:00.696Z,102203.38
2022-09-21T04:16:02.520Z,102198.13
2022-09-21T04:17:04.658Z,102194.56
2022-09-21T04:18:06.514Z,102204.53
2022-09-21T04:19:08.279Z,102204.53
2022-09-21T04:20:10.159Z,102204.53
2022-09-21T04:21:11.954Z,102197.41
2022-09-21T04:22:14.003Z,102201.94
2022-09-21T04:23:15.689Z,102183.09
2022-09-21T04:24:19.380Z,102204.66
2022-09-21T04:25:21.142Z,102202.81
2022-09-21T04:26:27.234Z,102202.09
2022-09-21T04:27:28.934Z,102201.13
2022-09-21T04:28:32.461Z,102208.22
2022-09-21T04:29:34.271Z,102201.94
2022-09-21T04:30:37.925Z,102205.63
2022-09-21T04:31:40.123Z,102204.66
2022-09-21T04:32:42.296Z,102196.28
2022-09-21T04:33:44.339Z,102206.50
2022-09-21T04:34:46.069Z,102205.63
2022-09-21T04:35:48.307Z,102204.81
2022-09-21T04:36:49.974Z,102205.81
2022-09-21T04:37:55.845Z,102191.19
2022-09-21T04:38:58.490Z,102196.13
2022-09-21T04:40:00.958Z,102196.72
2022-09-21T04:41:03.562Z,102193.19
2022-09-21T04:42:05.783Z,102204.81
2022-09-21T04:43:07.469Z,102187.63
2022-09-21T04:44:09.274Z,102193.88
2022-09-21T04:45:11.320Z,102205.09
2022-09-21T04:46:15.522Z,102204.22
2022-09-21T04:47:17.492Z,102206.63
2022-09-21T04:48:19.174Z,102212.19
2022-09-21T04:49:21.177Z,102203.38
2022-09-21T04:50:22.918Z,102208.78
2022-09-21T04:51:37.857Z,102206.50
2022-09-21T04:52:40.647Z,102203.94
2022-09-21T04:53:44.063Z,102204.09
2022-09-21T04:54:46.579Z,102208.78
2022-09-21T04:55:48.359Z,102213.03
2022-09-21T04:56:50.089Z,102206.50
2022-09-21T04:57:51.819Z,102207.38
2022-09-21T04:58:53.736Z,102215.88
2022-09-21T04:59:55.479Z,102213.19
2022-09-21T05:00:57.210Z,102213.31
2022-09-21T05:01:58.894Z,102195.13
2022-09-21T05:03:00.594Z,102213.31
2022-09-21T05:04:03.057Z,102211.59
2022-09-21T05:05:05.155Z,102211.75
2022-09-21T05:06:08.952Z,102208.50
2022-09-21T05:07:10.870Z,102205.66
2022-09-21T05:08:12.542Z,102204.66
2022-09-21T05:09:32.823Z,102209.78
2022-09-21T05:10:35.110Z,102208.34
2022-09-21T05:11:36.836Z,102209.19
2022-09-21T05:12:41.023Z,102194.88
2022-09-21T05:13:43.195Z,102197.00
2022-09-21T05:14:45.201Z,102216.84
2022-09-21T05:15:46.930Z,102202.81
2022-09-21T05:16:49.845Z,102215.56
2022-09-21T05:17:51.511Z,102209.91
2022-09-21T05:18:55.624Z,102210.75
2022-09-21T05:19:57.461Z,102212.88
2022-09-21T05:21:01.198Z,102198.25
2022-09-21T05:22:02.890Z,102208.88
2022-09-21T05:23:04.654Z,102221.78
2022-09-21T05:24:06.511Z,102207.59
2022-09-21T05:25:08.930Z,102215.84
2022-09-21T05:26:10.597Z,102200.22
2022-09-21T05:27:13.139Z,102216.09
2022-09-21T05:28:15.601Z,102211.56
2022-09-21T05:29:17.627Z,102220.81
2022-09-21T05:30:19.917Z,102215.13
2022-09-21T05:31:38.319Z,102213.84
2022-09-21T05:32:49.245Z,102210.84
2022-09-21T05:33:55.823Z,102223.75
2022-09-21T05:35:11.160Z,102210.66
2022-09-21T05:36:27.584Z,102222.59
2022-09-21T05:37:47.445Z,102220.59
2022-09-21T05:38:49.516Z,102226.53
2022-09-21T05:39:51.539Z,102226.53
2022-09-21T05:40:54.148Z,102227.41
2022-09-21T05:41:56.090Z,102224.00
2022-09-21T05:42:58.063Z,102207.41
2022-09-21T05:44:00.290Z,102229.81
2022-09-21T05:45:02.623Z,102232.22
2022-09-21T05:46:35.036Z,102235.44
2022-09-21T05:47:45.544Z,102231.88
2022-09-21T05:49:03.063Z,102230.72
2022-09-21T05:50:23.258Z,102229.41
2022-09-21T05:51:58.573Z,102228.81
2022-09-21T05:53:00.338Z,102231.50
2022-09-21T05:54:09.423Z,102229.13
2022-09-21T05:55:35.443Z,102234.38
2022-09-21T05:56:37.146Z,102225.88
2022-09-21T05:58:05.073Z,102222.41
2022-09-21T05:59:32.744Z,102226.97
2022-09-21T06:00:52.753Z,102198.41
2022-09-21T06:02:20.717Z,102231.06
2022-09-21T06:03:32.439Z,102227.06
2022-09-21T06:04:34.860Z,102220.78
2022-09-21T06:05:36.587Z,102222.97
2022-09-21T06:06:38.369Z,102222.09
2022-09-21T06:07:41.619Z,102221.25
2022-09-21T06:08:43.347Z,102224.66
2022-09-21T06:09:45.494Z,102228.38
2022-09-21T06:10:47.298Z,102204.78
2022-09-21T06:11:49.043Z,102228.19
2022-09-21T06:12:50.880Z,102218.69
2022-09-21T06:13:52.618Z,102210.19
2022-09-21T06:14:56.494Z,102229.75
2022-09-21T06:16:01.408Z,102232.28
2022-09-21T06:17:03.609Z,102228.59
2022-09-21T06:18:09.022Z,102239.28
2022-09-21T06:19:13.983Z,102219.25
2022-09-21T06:20:15.666Z,102238.97
2022-09-21T06:21:17.435Z,102230.47
2022-09-21T06:22:19.406Z,102232.88
2022-09-21T06:23:21.106Z,102227.75
2022-09-21T06:24:24.845Z,102236.41
2022-09-21T06:25:27.052Z,102237.97
2022-09-21T06:26:28.970Z,102216.88
2022-09-21T06:27:31.011Z,102217.78
2022-09-21T06:28:32.698Z,102230.84
2022-09-21T06:29:34.471Z,102223.34
2022-09-21T06:30:37.059Z,102219.66
2022-09-21T06:31:39.175Z,102236.97
2022-09-21T06:32:40.950Z,102228.03
2022-09-21T06:33:47.407Z,102223.44
2022-09-21T06:34:50.106Z,102200.66
2022-09-21T06:35:58.563Z,102228.84
2022-09-21T06:37:00.302Z,102210.53
2022-09-21T06:38:06.751Z,102227.72
2022-09-21T06:39:08.527Z,102229.41
2022-09-21T06:40:10.603Z,102229.41
2022-09-21T06:41:15.229Z,102242.06
2022-09-21T06:42:19.168Z,102232.94
2022-09-21T06:43:22.607Z,102227.16
2022-09-21T06:44:24.259Z,102228.56
2022-09-21T06:45:26.809Z,102237.66
2022-09-21T06:46:28.488Z,102233.97
2022-09-21T06:47:30.254Z,102229.56
2022-09-21T06:48:34.277Z,102234.97
2022-09-21T06:49:40.422Z,102230.41
2022-09-21T06:50:44.038Z,102211.09
2022-09-21T06:51:48.367Z,102224.16
2022-09-21T06:52:50.167Z,102232.94
2022-09-21T06:53:56.045Z,102225.00
2022-09-21T06:54:57.705Z,102240.06
2022-09-21T06:56:07.379Z,102242.94
2022-09-21T06:57:09.162Z,102230.13
2022-09-21T06:58:11.402Z,102230.25
2022-09-21T06:59:13.422Z,102238.34
2022-09-21T07:00:15.438Z,102223.16
2022-09-21T07:01:17.213Z,102233.97
2022-09-21T07:02:19.165Z,102228.56
2022-09-21T07:03:20.933Z,102219.34
2022-09-21T07:04:25.313Z,102241.22
2022-09-21T07:05:27.214Z,102232.13
2022-09-21T07:06:29.823Z,102230.16
2022-09-21T07:07:31.688Z,102225.00
2022-09-21T07:11:16.993Z,102234.03
2022-09-21T07:12:19.014Z,102240.63
2022-09-21T07:13:20.670Z,102243.47
2022-09-21T07:14:22.766Z,102230.56
2022-09-21T07:15:25.688Z,102229.28
2022-09-21T07:16:28.131Z,102241.06
2022-09-21T07:17:34.924Z,102240.22
2022-09-21T07:18:43.392Z,102250.88
2022-09-21T07:19:46.243Z,102249.88
2022-09-21T07:20:49.251Z,102237.34
2022-09-21T07:21:53.878Z,102244.78
2022-09-21T07:22:55.604Z,102240.94
2022-09-21T07:24:00.051Z,102246.47
2022-09-21T07:25:01.923Z,102247.34
2022-09-21T07:26:09.315Z,102228.59
2022-09-21T07:27:11.034Z,102247.34
2022-09-21T07:28:13.224Z,102234.66
2022-09-21T07:29:15.188Z,102233.16
2022-09-21T07:30:16.986Z,102239.22
2022-09-21T07:31:19.059Z,102241.06
2022-09-21T07:32:21.474Z,102246.47
2022-09-21T07:33:23.427Z,102233.66
2022-09-21T07:34:25.189Z,102235.13
2022-09-21T07:35:26.872Z,102242.75
2022-09-21T07:36:28.598Z,102248.16
2022-09-21T07:37:31.875Z,102238.34
2022-09-21T07:38:39.895Z,102245.47
2022-09-21T07:39:41.710Z,102243.47
2022-09-21T07:40:43.523Z,102221.06
2022-09-21T07:41:45.330Z,102241.75
2022-09-21T07:42:47.046Z,102241.75
2022-09-21T07:43:48.839Z,102245.31
2022-09-21T07:44:51.244Z,102239.91
2022-09-21T07:45:57.272Z,102220.91
2022-09-21T07:46:59.082Z,102241.63
2022-09-21T07:48:05.395Z,102237.34
2022-09-21T07:49:07.267Z,102236.53
2022-09-21T07:50:09.825Z,102232.66
2022-09-21T07:51:13.985Z,102243.63
2022-09-21T07:52:15.992Z,102221.75
2022-09-21T07:53:18.003Z,102240.75
2022-09-21T07:54:19.722Z,102221.63
2022-09-21T07:55:21.520Z,102241.63
2022-09-21T07:56:23.455Z,102243.47
2022-09-21T07:57:43.585Z,102240.94
2022-09-21T07:59:03.811Z,102237.63
2022-09-21T08:00:06.185Z,102238.13
2022-09-21T08:01:13.500Z,102238.31
2022-09-21T08:02:15.320Z,102227.53
2022-09-21T08:03:17.254Z,102220.19
2022-09-21T08:04:19.219Z,102244.16
2022-09-21T08:05:20.962Z,102238.75
2022-09-21T08:06:23.891Z,102236.22
2022-09-21T08:07:27.961Z,102237.06
2022-09-21T08:08:29.711Z,102244.16
2022-09-21T08:09:31.439Z,102228.41
2022-09-21T08:10:33.395Z,102237.91
2022-09-21T08:11:36.068Z,102237.91
2022-09-21T08:12:37.763Z,102242.31
2022-09-21T08:13:39.578Z,102239.63
2022-09-21T08:14:41.513Z,102244.16
2022-09-21T08:15:49.677Z,102239.44
2022-09-21T08:16:52.260Z,102236.75
2022-09-21T08:17:54.582Z,102228.81
2022-09-21T08:18:56.682Z,102235.03
2022-09-21T08:19:58.777Z,102229.09
2022-09-21T08:21:01.057Z,102227.41
2022-09-21T08:22:02.933Z,102236.75
2022-09-21T08:23:05.065Z,102239.44
2022-09-21T08:24:07.330Z,102244.84
2022-09-21T08:25:11.104Z,102243.16
2022-09-21T08:26:18.256Z,102236.75
2022-09-21T08:27:20.391Z,102241.84
2022-09-21T08:28:22.126Z,102222.13
2022-09-21T08:29:25.142Z,102239.31
2022-09-21T08:30:28.647Z,102241.00
2022-09-21T08:31:31.098Z,102229.94
2022-09-21T08:32:50.489Z,102226.25
2022-09-21T08:33:54.789Z,102220.00
2022-09-21T08:34:56.454Z,102222.22
2022-09-21T08:36:00.046Z,102226.09
2022-09-21T08:37:01.818Z,102242.41
2022-09-21T08:38:03.558Z,102227.50
2022-09-21T08:39:09.353Z,102228.19
2022-09-21T08:40:12.458Z,102225.94
2022-09-21T08:41:17.034Z,102232.59
2022-09-21T08:42:50.671Z,102235.56
2022-09-21T08:43:58.238Z,102231.84
2022-09-21T08:45:10.242Z,102237.38
2022-09-21T08:46:19.178Z,102248.19
2022-09-21T08:47:43.699Z,102233.38
2022-09-21T08:48:54.523Z,102221.09
2022-09-21T08:50:00.667Z,102230.44
2022-09-21T08:51:06.209Z,102234.53
2022-09-21T08:52:16.261Z,102239.25
2022-09-21T08:53:50.329Z,102240.09
2022-09-21T08:54:57.770Z,102235.25
2022-09-21T08:55:59.814Z,102238.66
2022-09-21T08:57:05.407Z,102238.94
2022-09-21T08:58:33.359Z,102237.63
2022-09-21T08:59:35.442Z,102234.94
2022-09-21T09:00:40.812Z,102240.66
2022-09-21T09:01:45.655Z,102241.78
2022-09-21T09:03:08.768Z,102230.16
2022-09-21T09:04:42.862Z,102238.66
2022-09-21T09:05:44.583Z,102237.31
2022-09-21T09:07:28.330Z,102230.91
2022-09-21T09:08:48.146Z,102227.03
2022-09-21T09:10:11.700Z,102227.22
2022-09-21T09:11:32.094Z,102227.22
2022-09-21T09:12:53.783Z,102215.63
2022-09-21T09:14:27.641Z,102221.63
2022-09-21T09:16:17.393Z,102229.16
2022-09-21T09:17:59.019Z,102223.75
2022-09-21T09:19:21.135Z,102227.59
2022-09-21T09:20:30.905Z,102233.13
2022-09-21T09:21:38.386Z,102219.53
2022-09-21T09:23:25.151Z,102223.50
2022-09-21T09:24:38.915Z,102230.59
2022-09-21T09:25:42.847Z,102230.75
2022-09-21T09:27:00.563Z,102225.50
2022-09-21T09:28:13.679Z,102229.22
2022-09-21T09:30:06.403Z,102230.59
2022-09-21T09:31:21.677Z,102224.75
2022-09-21T09:32:32.639Z,102222.50
2022-09-21T09:33:53.935Z,102227.03
2022-09-21T09:35:19.821Z,102221.81
2022-09-21T09:36:46.579Z,102224.34
2022-09-21T09:37:48.654Z,102202.50
2022-09-21T09:38:57.573Z,102228.03
2022-09-21T09:40:01.640Z,102225.50
2022-09-21T09:41:09.159Z,102229.22
2022-09-21T09:42:13.847Z,102228.22
2022-09-21T09:43:37.344Z,102229.34
2022-09-21T09:44:44.887Z,102230.59
2022-09-21T09:45:56.336Z,102225.50
2022-09-21T09:47:12.775Z,102225.34
2022-09-21T09:48:17.186Z,102231.44
2022-09-21T09:49:38.279Z,102225.19
2022-09-21T09:50:41.769Z,102226.91
2022-09-21T09:51:43.651Z,102226.91
2022-09-21T09:52:46.874Z,102210.91
2022-09-21T09:53:49.195Z,102229.06
2022-09-21T09:54:50.927Z,102219.25
2022-09-21T09:55:55.167Z,102217.53
2022-09-21T09:56:56.956Z,102222.81
2022-09-21T09:57:59.140Z,102225.50
2022-09-21T09:59:08.323Z,102231.75
2022-09-21T10:00:14.600Z,102223.50
2022-09-21T10:01:39.042Z,102225.59
2022-09-21T10:02:55.548Z,102220.03
2022-09-21T10:04:20.567Z,102214.94
2022-09-21T10:05:31.172Z,102226.88
2022-09-21T10:06:33.361Z,102228.00
2022-09-21T10:07:43.867Z,102222.88
2022-09-21T10:08:48.574Z,102217.66
2022-09-21T10:09:50.251Z,102223.88
2022-09-21T10:10:52.062Z,102217.41
2022-09-21T10:11:58.391Z,102213.00
2022-09-21T10:13:21.989Z,102232.56
2022-09-21T10:14:26.630Z,102221.75
2022-09-21T10:15:29.959Z,102215.09
2022-09-21T10:16:32.066Z,102228.97
2022-09-21T10:17:33.873Z,102213.81
2022-09-21T10:18:45.250Z,102233.00
2022-09-21T10:19:47.158Z,102227.28
2022-09-21T10:21:08.547Z,102218.47
2022-09-21T10:22:18.056Z,102228.88
2022-09-21T10:23:20.098Z,102222.19
2022-09-21T10:24:23.620Z,102231.69
2022-09-21T10:25:25.471Z,102204.81
2022-09-21T10:26:41.151Z,102226.28
2022-09-21T10:27:46.644Z,102228.88
2022-09-21T10:29:23.473Z,102236.19
2022-09-21T10:30:31.810Z,102235.19
2022-09-21T10:31:33.524Z,102239.91
2022-09-21T10:32:36.845Z,102233.97
2022-09-21T10:33:49.993Z,102231.41
2022-09-21T10:35:16.425Z,102237.91
2022-09-21T10:36:35.994Z,102235.88
2022-09-21T10:37:42.777Z,102233.50
2022-09-21T10:38:45.843Z,102235.38
2022-09-21T10:39:47.561Z,102234.81
2022-09-21T10:40:50.261Z,102216.09
2022-09-21T10:41:59.204Z,102231.69
2022-09-21T10:43:00.939Z,102233.97
2022-09-21T10:44:02.732Z,102222.88
2022-09-21T10:45:16.296Z,102233.13
2022-09-21T10:46:18.347Z,102233.81
2022-09-21T10:47:42.586Z,102231.66
2022-09-21T10:48:47.033Z,102219.91
2022-09-21T10:49:55.175Z,102233.66
2022-09-21T10:50:57.979Z,102232.81
2022-09-21T10:52:02.078Z,102220.03
2022-09-21T10:53:09.719Z,102229.25
2022-09-21T10:54:11.919Z,102230.09
2022-09-21T10:55:19.987Z,102231.09
2022-09-21T10:56:21.815Z,102224.69
2022-09-21T10:57:26.131Z,102226.56
2022-09-21T10:58:28.774Z,102202.25
2022-09-21T10:59:36.359Z,102226.69
2022-09-21T11:00:48.158Z,102220.97
2022-09-21T11:01:52.792Z,102205.50
2022-09-21T11:02:56.286Z,102220.84
2022-09-21T11:04:08.815Z,102215.56
2022-09-21T11:05:28.668Z,102231.34
2022-09-21T11:06:34.157Z,102225.94
2022-09-21T11:08:02.705Z,102216.50
2022-09-21T11:09:09.343Z,102219.34
2022-09-21T11:10:14.078Z,102217.66
2022-09-21T11:11:46.835Z,102217.66
2022-09-21T11:13:05.942Z,102207.06
2022-09-21T11:14:14.328Z,102213.66
2022-09-21T11:15:23.196Z,102211.22
2022-09-21T11:16:32.435Z,102204.75
2022-09-21T11:17:55.196Z,102220.03
2022-09-21T11:19:18.764Z,102206.22
2022-09-21T11:20:30.275Z,102212.78
2022-09-21T11:22:12.319Z,102209.31
2022-09-21T11:23:21.762Z,102205.91
2022-09-21T11:24:36.822Z,102210.78
2022-09-21T11:25:55.866Z,102204.38
2022-09-21T11:27:07.017Z,102209.94
2022-09-21T11:28:17.934Z,102205.38
2022-09-21T11:29:31.936Z,102208.25
2022-09-21T11:30:48.862Z,102209.94
2022-09-21T11:32:37.981Z,102205.75
2022-09-21T11:33:49.080Z,102207.31
2022-09-21T11:35:00.326Z,102204.91
2022-09-21T11:36:17.975Z,102204.91
2022-09-21T11:37:25.867Z,102212.47
2022-09-21T11:39:06.587Z,102212.16
2022-09-21T11:40:45.659Z,102205.28
2022-09-21T11:42:11.225Z,102210.38
2022-09-21T11:43:40.322Z,102207.81
2022-09-21T11:44:54.048Z,102209.00
2022-09-21T11:46:07.843Z,102212.84
2022-09-21T11:47:21.464Z,102213.03
2022-09-21T11:48:44.938Z,102210.84
2022-09-21T11:50:29.243Z,102198.19
2022-09-21T11:51:42.171Z,102210.69
2022-09-21T11:53:22.698Z,102203.09
2022-09-21T11:54:53.509Z,102202.59
2022-09-21T11:56:16.165Z,102197.16
2022-09-21T11:57:35.836Z,102199.00
2022-09-21T11:58:45.475Z,102201.88
2022-09-21T12:00:11.877Z,102196.31
2022-09-21T12:01:31.964Z,102195.47
2022-09-21T12:03:07.435Z,102203.41
2022-09-21T12:04:34.118Z,102201.56
2022-09-21T12:06:03.549Z,102200.72
2022-09-21T12:07:24.597Z,102203.59
2022-09-21T12:08:53.698Z,102196.16
2022-09-21T12:10:22.730Z,102208.81
2022-09-21T12:11:38.267Z,102207.81
2022-09-21T12:13:09.259Z,102201.03
2022-09-21T12:14:25.557Z,102206.13
2022-09-21T12:15:51.367Z,102203.28
2022-09-21T12:17:16.057Z,102196.69
2022-09-21T12:18:43.869Z,102203.28
2022-09-21T12:20:22.747Z,102202.78
2022-09-21T12:21:30.004Z,102195.84
2022-09-21T12:22:36.237Z,102199.00
2022-09-21T12:23:43.151Z,102198.50
2022-09-21T12:24:50.997Z,102196.78
2022-09-21T12:25:57.390Z,102193.22
2022-09-21T12:27:07.360Z,102189.69
2022-09-21T12:28:20.749Z,102194.09
2022-09-21T12:29:47.785Z,102190.06
2022-09-21T12:30:56.297Z,102195.31
2022-09-21T12:32:28.507Z,102190.44
2022-09-21T12:33:40.728Z,102187.88
2022-09-21T12:34:52.388Z,102193.47
2022-09-21T12:36:08.751Z,102190.75
2022-09-21T12:37:19.251Z,102193.47
2022-09-21T12:38:42.914Z,102188.56
2022-09-21T12:39:51.668Z,102186.19
2022-09-21T12:40:56.247Z,102193.47
2022-09-21T12:42:06.242Z,102187.34
2022-09-21T12:43:30.790Z,102188.75
2022-09-21T12:44:52.513Z,102170.44
2022-09-21T12:46:02.752Z,102187.56
2022-09-21T12:47:10.799Z,102180.63
2022-09-21T12:48:31.925Z,102177.91
2022-09-21T12:49:33.886Z,102171.13
2022-09-21T12:50:43.710Z,102181.94
2022-09-21T12:51:59.291Z,102177.22
2022-09-21T12:53:01.616Z,102179.63
2022-09-21T12:54:24.256Z,102179.63
2022-09-21T12:55:31.705Z,102144.59
2022-09-21T12:56:53.895Z,102178.44
2022-09-21T12:58:15.896Z,102181.00
2022-09-21T12:59:44.290Z,102175.94
2022-09-21T13:01:09.401Z,102176.28
2022-09-21T13:02:20.065Z,102180.69
2022-09-21T13:03:37.279Z,102162.00
2022-09-21T13:05:07.285Z,102175.13
2022-09-21T13:06:31.179Z,102176.97